Time;durP1;ratioP1;P1;durP2;ratioP2;P2;SDS_P1;SDS_P2;PMS_P1;PMS_P2;Temp;Humidity;BMP_temperature;BMP_pressure;BME280_temperature;BME280_humidity;BME280_pressure;Samples;Min_cycle;Max_cycle;Signal;HPM_P1;HPM_P2
2023/08/26 00:02:10;;;;;;;19.70;16.80;;;19.20;99.90;;;;;;5030323;28;20242;-56
2023/08/26 00:04:37;;;;;;;21.43;17.30;;;19.20;99.90;;;;;;5018210;28;20227;-44
2023/08/26 00:07:06;;;;;;;21.93;18.27;;;19.20;99.90;;;;;;5024523;28;20254;-56
2023/08/26 00:09:33;;;;;;;20.47;18.27;;;19.20;99.90;;;;;;5031268;28;20195;-43
2023/08/26 00:12:01;;;;;;;21.93;17.60;;;19.20;99.90;;;;;;5037711;28;20195;-56
2023/08/26 00:14:28;;;;;;;20.63;18.53;;;19.20;99.90;;;;;;5015365;28;20270;-48
2023/08/26 00:16:55;;;;;;;25.40;19.33;;;19.20;99.90;;;;;;5035859;28;20195;-46
2023/08/26 00:19:22;;;;;;;25.37;20.63;;;19.10;99.90;;;;;;5016076;28;20207;-47
2023/08/26 00:21:50;;;;;;;26.83;21.40;;;19.10;99.90;;;;;;5026704;28;20651;-47
2023/08/26 00:24:17;;;;;;;28.53;21.30;;;19.10;99.90;;;;;;5031292;28;20232;-47
2023/08/26 00:26:44;;;;;;;27.43;21.63;;;19.10;99.90;;;;;;5036013;28;20195;-47
2023/08/26 00:29:12;;;;;;;23.53;20.90;;;19.00;99.90;;;;;;5026885;28;20539;-51
2023/08/26 00:31:40;;;;;;;23.47;18.87;;;19.10;99.90;;;;;;5024797;28;20250;-49
2023/08/26 00:34:06;;;;;;;24.97;20.37;;;19.00;99.90;;;;;;5017616;28;20215;-49
2023/08/26 00:36:32;;;;;;;22.23;19.20;;;19.00;99.90;;;;;;5026124;28;20238;-47
2023/08/26 00:38:59;;;;;;;23.13;20.13;;;19.00;99.90;;;;;;5022134;28;20208;-50
2023/08/26 00:41:26;;;;;;;22.90;19.27;;;19.00;99.90;;;;;;5027329;28;20199;-47
2023/08/26 00:43:53;;;;;;;28.37;21.53;;;19.00;99.90;;;;;;5036465;28;20640;-50
2023/08/26 00:46:23;;;;;;;25.13;21.13;;;19.00;99.90;;;;;;5019333;28;20265;-48
2023/08/26 00:48:50;;;;;;;23.53;21.03;;;19.00;99.90;;;;;;5011645;28;20678;-45
2023/08/26 00:51:19;;;;;;;26.00;21.70;;;19.00;99.90;;;;;;5025513;28;20234;-44
2023/08/26 00:53:46;;;;;;;26.67;22.60;;;19.00;99.90;;;;;;5020965;28;20709;-47
2023/08/26 00:56:13;;;;;;;27.57;21.83;;;19.00;99.90;;;;;;5022641;28;20208;-49
2023/08/26 00:58:41;;;;;;;25.67;21.53;;;19.00;99.90;;;;;;5029524;28;20192;-48
2023/08/26 01:01:08;;;;;;;28.67;23.10;;;19.00;99.90;;;;;;5024645;28;20217;-54
2023/08/26 01:03:38;;;;;;;28.77;23.93;;;19.00;99.90;;;;;;5026242;28;20212;-50
2023/08/26 01:06:05;;;;;;;29.43;23.50;;;19.00;99.90;;;;;;5017770;28;20211;-52
2023/08/26 01:08:32;;;;;;;29.03;23.90;;;19.00;99.90;;;;;;5020525;28;20204;-48
2023/08/26 01:11:06;;;;;;;26.87;22.17;;;19.00;99.90;;;;;;5026811;28;20195;-50
2023/08/26 01:13:41;;;;;;;26.83;21.90;;;19.00;99.90;;;;;;5025574;28;21027;-46
2023/08/26 01:16:09;;;;;;;26.70;23.10;;;19.00;99.90;;;;;;5024531;28;20191;-54
2023/08/26 01:18:38;;;;;;;30.17;24.90;;;19.00;99.90;;;;;;5023442;28;20219;-47
2023/08/26 01:21:06;;;;;;;30.17;23.50;;;19.00;99.90;;;;;;5006013;28;20211;-51
2023/08/26 01:23:39;;;;;;;32.67;23.67;;;19.00;99.90;;;;;;5018813;28;20572;-48
2023/08/26 01:26:07;;;;;;;28.87;23.30;;;19.10;99.90;;;;;;5026924;28;20199;-51
2023/08/26 01:28:34;;;;;;;31.53;24.00;;;18.90;99.90;;;;;;5028696;28;20192;-49
2023/08/26 01:31:05;;;;;;;31.40;23.97;;;19.00;99.90;;;;;;5032287;28;20200;-51
2023/08/26 01:33:37;;;;;;;36.10;25.67;;;18.90;99.90;;;;;;5017679;28;20207;-51
2023/08/26 01:36:09;;;;;;;32.30;24.27;;;18.90;99.90;;;;;;5019434;28;20211;-52
2023/08/26 01:38:39;;;;;;;34.37;24.53;;;18.90;99.90;;;;;;5019655;28;20297;-50
2023/08/26 01:41:09;;;;;;;33.93;26.07;;;18.80;99.90;;;;;;5028281;28;20207;-50
2023/08/26 01:43:37;;;;;;;30.97;25.37;;;18.80;99.90;;;;;;5028299;28;20216;-50
2023/08/26 01:46:03;;;;;;;31.20;25.00;;;18.80;99.90;;;;;;5030924;28;20253;-49
2023/08/26 01:48:31;;;;;;;31.73;25.07;;;18.80;99.90;;;;;;5015970;28;20208;-48
2023/08/26 01:50:58;;;;;;;32.83;24.40;;;18.80;99.90;;;;;;5009780;28;20212;-53
2023/08/26 01:53:25;;;;;;;33.30;24.30;;;18.70;99.90;;;;;;5024237;28;21000;-46
2023/08/26 01:55:53;;;;;;;31.27;25.53;;;18.70;99.90;;;;;;5019915;28;20200;-47
2023/08/26 01:58:20;;;;;;;32.50;24.87;;;18.70;99.90;;;;;;5023209;28;20963;-43
2023/08/26 02:00:46;;;;;;;33.33;26.13;;;18.70;99.90;;;;;;5030303;28;20230;-45
2023/08/26 02:03:14;;;;;;;33.40;23.70;;;18.70;99.90;;;;;;5023143;28;20231;-53
2023/08/26 02:05:40;;;;;;;32.93;25.40;;;18.70;99.90;;;;;;5001628;28;20235;-46
2023/08/26 02:08:08;;;;;;;32.43;25.57;;;18.70;99.90;;;;;;5025720;28;20566;-51
2023/08/26 02:10:39;;;;;;;30.40;24.23;;;18.60;99.90;;;;;;5020538;28;20358;-45
2023/08/26 02:13:07;;;;;;;31.03;24.67;;;18.60;99.90;;;;;;5024625;28;20192;-50
2023/08/26 02:15:35;;;;;;;30.13;24.67;;;18.60;99.90;;;;;;5024950;28;20188;-46
2023/08/26 02:18:02;;;;;;;34.17;25.43;;;18.60;99.90;;;;;;5024738;28;20224;-52
2023/08/26 02:20:29;;;;;;;33.47;25.37;;;18.60;99.90;;;;;;5017567;28;20282;-46
2023/08/26 02:22:56;;;;;;;31.23;24.80;;;18.50;99.90;;;;;;5015218;28;20204;-44
2023/08/26 02:25:23;;;;;;;29.60;23.77;;;18.50;99.90;;;;;;5025490;28;20191;-48
2023/08/26 02:27:50;;;;;;;31.57;24.23;;;18.60;99.90;;;;;;5019875;28;20262;-50
2023/08/26 02:30:19;;;;;;;33.63;24.43;;;18.60;99.90;;;;;;5029608;28;20660;-45
2023/08/26 02:32:45;;;;;;;29.83;23.70;;;18.60;99.90;;;;;;5029309;28;20212;-45
2023/08/26 02:35:12;;;;;;;29.77;24.10;;;18.50;99.90;;;;;;5022156;28;20222;-52
2023/08/26 02:37:39;;;;;;;32.77;25.57;;;18.50;99.90;;;;;;5012973;28;20207;-47
2023/08/26 02:40:07;;;;;;;30.87;24.23;;;18.40;99.90;;;;;;5030133;28;20215;-52
2023/08/26 02:42:35;;;;;;;30.73;23.47;;;18.50;99.90;;;;;;5018937;28;20250;-48
2023/08/26 02:45:04;;;;;;;30.87;24.37;;;18.50;99.90;;;;;;5023847;28;20219;-51
2023/08/26 02:47:32;;;;;;;29.10;21.80;;;18.50;99.90;;;;;;5026127;28;20874;-51
2023/08/26 02:49:59;;;;;;;33.33;24.63;;;18.50;99.90;;;;;;5028280;28;20211;-51
2023/08/26 02:52:26;;;;;;;32.40;23.93;;;18.50;99.90;;;;;;4996797;28;20203;-47
2023/08/26 02:54:52;;;;;;;33.07;24.67;;;18.50;99.90;;;;;;5027597;28;20219;-48
2023/08/26 02:57:20;;;;;;;32.90;24.00;;;18.50;99.90;;;;;;5018582;28;20215;-48
2023/08/26 02:59:49;;;;;;;30.83;22.53;;;18.50;99.90;;;;;;5026237;28;20540;-45
2023/08/26 03:02:16;;;;;;;31.10;22.97;;;18.50;99.90;;;;;;5018115;28;20206;-51
2023/08/26 03:04:44;;;;;;;28.47;21.40;;;18.50;99.90;;;;;;5027007;28;20870;-45
2023/08/26 03:07:11;;;;;;;32.77;23.23;;;18.40;99.90;;;;;;5002478;28;20207;-50
2023/08/26 03:09:38;;;;;;;29.90;22.73;;;18.40;99.90;;;;;;5022189;28;20207;-49
2023/08/26 03:12:05;;;;;;;33.90;23.90;;;18.40;99.90;;;;;;5020346;28;20246;-51
2023/08/26 03:14:32;;;;;;;29.70;22.67;;;18.30;99.90;;;;;;5013904;28;20211;-46
2023/08/26 03:16:59;;;;;;;32.70;23.23;;;18.40;99.90;;;;;;5019642;28;20663;-51
2023/08/26 03:19:27;;;;;;;31.60;23.57;;;18.40;99.90;;;;;;5019729;28;20261;-47
2023/08/26 03:21:55;;;;;;;34.93;25.07;;;18.40;99.90;;;;;;5023816;28;20204;-44
2023/08/26 03:24:22;;;;;;;33.70;24.07;;;18.40;99.90;;;;;;5001309;28;20226;-46
2023/08/26 03:26:50;;;;;;;32.27;24.17;;;18.40;99.90;;;;;;5024495;28;20204;-46
2023/08/26 03:29:17;;;;;;;30.70;23.47;;;18.50;99.90;;;;;;5013692;28;20204;-46
2023/08/26 03:31:44;;;;;;;31.27;24.17;;;18.50;99.90;;;;;;5025064;28;20654;-46
2023/08/26 03:34:13;;;;;;;35.60;24.83;;;18.40;99.90;;;;;;5012093;28;20215;-48
2023/08/26 03:36:40;;;;;;;34.43;24.20;;;18.40;99.90;;;;;;5035091;28;20719;-46
2023/08/26 03:39:08;;;;;;;34.27;24.80;;;18.50;99.90;;;;;;5000664;28;20208;-45
2023/08/26 03:41:35;;;;;;;32.90;23.87;;;18.50;99.90;;;;;;5030350;28;20192;-47
2023/08/26 03:44:04;;;;;;;36.53;25.80;;;18.50;99.90;;;;;;5017568;28;20216;-53
2023/08/26 03:46:31;;;;;;;33.83;24.70;;;18.50;99.90;;;;;;5031505;28;20382;-47
2023/08/26 03:48:57;;;;;;;34.87;24.73;;;18.50;99.90;;;;;;5029544;28;20206;-51
2023/08/26 03:51:24;;;;;;;39.70;26.53;;;18.50;99.90;;;;;;5029638;28;20188;-50
2023/08/26 03:53:51;;;;;;;36.57;25.87;;;18.50;99.90;;;;;;5017265;28;20281;-52
2023/08/26 03:56:19;;;;;;;35.43;24.83;;;18.50;99.90;;;;;;5003301;28;20200;-49
2023/08/26 03:58:46;;;;;;;36.37;26.57;;;18.60;99.90;;;;;;5027191;28;20200;-45
2023/08/26 04:01:13;;;;;;;36.17;25.37;;;18.50;99.90;;;;;;5003708;28;20216;-48
2023/08/26 04:03:40;;;;;;;34.07;25.77;;;18.50;99.90;;;;;;5022757;28;20717;-44
2023/08/26 04:06:06;;;;;;;36.07;25.80;;;18.50;99.90;;;;;;5016488;28;20196;-50
2023/08/26 04:08:34;;;;;;;37.30;26.53;;;18.50;99.90;;;;;;5013788;28;20597;-46
2023/08/26 04:11:02;;;;;;;39.70;26.43;;;18.60;99.90;;;;;;5002459;28;20220;-50
2023/08/26 04:13:31;;;;;;;38.53;27.93;;;18.50;99.90;;;;;;5027083;28;20234;-46
2023/08/26 04:15:58;;;;;;;40.83;27.67;;;18.50;99.90;;;;;;5018187;28;20258;-52
2023/08/26 04:18:25;;;;;;;39.30;27.20;;;18.50;99.90;;;;;;5027126;28;20194;-44
2023/08/26 04:20:53;;;;;;;41.00;27.90;;;18.50;99.90;;;;;;5026982;28;20200;-51
2023/08/26 04:23:20;;;;;;;40.77;27.37;;;18.50;99.90;;;;;;5017178;28;20825;-47
2023/08/26 04:25:47;;;;;;;39.80;27.47;;;18.50;99.90;;;;;;5016206;28;20200;-54
2023/08/26 04:28:15;;;;;;;40.87;28.53;;;18.50;99.90;;;;;;5009307;28;20207;-45
2023/08/26 04:30:45;;;;;;;45.00;27.70;;;18.50;99.90;;;;;;5011776;28;20752;-46
2023/08/26 04:33:12;;;;;;;45.63;28.83;;;18.50;99.90;;;;;;5022552;28;20223;-46
2023/08/26 04:35:39;;;;;;;41.43;27.93;;;18.50;99.90;;;;;;5026482;28;20188;-46
2023/08/26 04:38:06;;;;;;;43.03;28.37;;;18.50;99.90;;;;;;5019276;28;20235;-49
2023/08/26 04:40:33;;;;;;;44.13;28.57;;;18.50;99.90;;;;;;5022192;28;20269;-46
2023/08/26 04:43:01;;;;;;;48.20;27.63;;;18.60;99.90;;;;;;5017902;28;20666;-51
2023/08/26 04:45:28;;;;;;;40.17;25.87;;;18.60;99.90;;;;;;5030640;28;20223;-45
2023/08/26 04:47:57;;;;;;;41.37;26.67;;;18.60;99.90;;;;;;5026786;28;20198;-51
2023/08/26 04:50:24;;;;;;;41.33;26.77;;;18.60;99.90;;;;;;5023689;28;20200;-50
2023/08/26 04:52:51;;;;;;;42.40;27.20;;;18.60;99.90;;;;;;5028811;28;20203;-50
2023/08/26 04:55:18;;;;;;;42.47;26.57;;;18.60;99.90;;;;;;5009085;28;21807;-46
2023/08/26 04:57:45;;;;;;;40.13;26.83;;;18.60;99.90;;;;;;5025826;28;20204;-46
2023/08/26 05:00:16;;;;;;;40.37;27.23;;;18.60;99.90;;;;;;4999404;28;20300;-47
2023/08/26 05:02:43;;;;;;;36.80;24.03;;;18.60;99.90;;;;;;5005455;28;20211;-48
2023/08/26 05:05:11;;;;;;;35.37;23.73;;;18.60;99.90;;;;;;5023790;28;20235;-49
2023/08/26 05:07:39;;;;;;;36.87;22.83;;;18.60;99.90;;;;;;5024344;28;20781;-47
2023/08/26 05:10:07;;;;;;;29.90;20.97;;;18.60;99.90;;;;;;5019311;28;20228;-45
2023/08/26 05:12:34;;;;;;;36.27;22.97;;;18.60;99.90;;;;;;5019054;28;20239;-48
2023/08/26 05:15:02;;;;;;;30.33;20.80;;;18.60;99.90;;;;;;5003291;28;20227;-45
2023/08/26 05:17:29;;;;;;;32.13;21.67;;;18.60;99.90;;;;;;5021569;28;20200;-55
2023/08/26 05:19:56;;;;;;;31.30;20.87;;;18.60;99.90;;;;;;5028996;28;20295;-43
2023/08/26 05:22:25;;;;;;;33.53;22.83;;;18.60;99.90;;;;;;5032294;28;20222;-55
2023/08/26 05:24:52;;;;;;;30.33;20.60;;;18.60;99.90;;;;;;5023960;28;20223;-43
2023/08/26 05:27:22;;;;;;;34.00;22.30;;;18.60;99.90;;;;;;5022474;28;20211;-56
2023/08/26 05:29:49;;;;;;;27.53;21.20;;;18.60;99.90;;;;;;5010274;28;21213;-50
2023/08/26 05:32:17;;;;;;;27.17;20.20;;;18.60;99.90;;;;;;5010168;28;20212;-54
2023/08/26 05:34:44;;;;;;;27.77;19.23;;;18.60;99.90;;;;;;5038361;28;20809;-42
2023/08/26 05:37:11;;;;;;;27.77;19.03;;;18.60;99.90;;;;;;5035632;28;20204;-47
2023/08/26 05:39:40;;;;;;;27.80;18.90;;;18.70;99.90;;;;;;5021291;28;20203;-45
2023/08/26 05:42:07;;;;;;;27.13;18.70;;;18.60;99.90;;;;;;5023160;28;20262;-49
2023/08/26 05:44:34;;;;;;;24.30;18.03;;;18.60;99.90;;;;;;5000318;28;20882;-44
2023/08/26 05:47:02;;;;;;;22.87;17.07;;;18.60;99.90;;;;;;5007099;28;20250;-57
2023/08/26 05:49:29;;;;;;;23.70;18.47;;;18.60;99.90;;;;;;5015768;28;20200;-43
2023/08/26 05:51:56;;;;;;;24.00;17.57;;;18.60;99.90;;;;;;5003405;28;20204;-49
2023/08/26 05:54:23;;;;;;;24.60;17.23;;;18.60;99.90;;;;;;5014740;28;20224;-55
2023/08/26 05:56:51;;;;;;;23.63;17.73;;;18.70;99.90;;;;;;5013158;28;20266;-50
2023/08/26 05:59:18;;;;;;;25.10;18.30;;;18.60;99.90;;;;;;5026897;28;20204;-59
2023/08/26 06:01:45;;;;;;;26.70;17.57;;;18.60;99.90;;;;;;5001242;28;20916;-45
2023/08/26 06:04:12;;;;;;;22.53;17.27;;;18.70;99.90;;;;;;5016358;28;20223;-49
2023/08/26 06:06:38;;;;;;;22.33;16.87;;;18.70;99.90;;;;;;5022026;28;20943;-47
2023/08/26 06:09:05;;;;;;;24.60;17.30;;;18.70;99.90;;;;;;5011411;28;20200;-50
2023/08/26 06:11:32;;;;;;;23.60;17.00;;;18.70;99.90;;;;;;5022309;28;20250;-49
2023/08/26 06:14:00;;;;;;;22.73;17.10;;;18.80;99.90;;;;;;5017139;28;20223;-55
2023/08/26 06:16:27;;;;;;;21.73;15.60;;;18.80;99.90;;;;;;4999641;28;20239;-49
2023/08/26 06:18:55;;;;;;;18.87;15.30;;;18.80;99.90;;;;;;5013302;28;20212;-49
2023/08/26 06:21:22;;;;;;;20.47;16.23;;;18.80;99.90;;;;;;5021219;28;20200;-45
2023/08/26 06:23:49;;;;;;;22.50;15.37;;;18.80;99.90;;;;;;5020210;28;20306;-50
2023/08/26 06:26:16;;;;;;;21.13;15.43;;;18.80;99.90;;;;;;5015888;28;20219;-53
2023/08/26 06:28:43;;;;;;;18.07;14.27;;;18.70;99.90;;;;;;5013145;28;20188;-45
2023/08/26 06:31:12;;;;;;;21.00;14.50;;;18.70;99.90;;;;;;5000307;28;20999;-51
2023/08/26 06:33:43;;;;;;;19.97;14.10;;;18.80;99.90;;;;;;5015495;28;20224;-52
2023/08/26 06:36:10;;;;;;;21.80;14.77;;;18.70;99.90;;;;;;5016993;28;20191;-51
2023/08/26 06:38:37;;;;;;;16.77;13.27;;;18.80;99.90;;;;;;5031445;28;20203;-46
2023/08/26 06:41:04;;;;;;;16.17;13.53;;;18.50;99.90;;;;;;5007743;28;20986;-46
2023/08/26 06:43:31;;;;;;;17.37;13.87;;;18.70;99.90;;;;;;5021419;28;20717;-45
2023/08/26 06:45:59;;;;;;;16.70;13.07;;;18.80;99.90;;;;;;5004514;28;20235;-46
2023/08/26 06:48:29;;;;;;;14.37;12.83;;;18.90;99.90;;;;;;5012173;28;20689;-48
2023/08/26 06:50:58;;;;;;;13.40;10.70;;;18.90;99.90;;;;;;5013140;28;20262;-53
2023/08/26 06:53:24;;;;;;;14.60;11.17;;;18.90;99.90;;;;;;5021731;28;20578;-47
2023/08/26 06:55:53;;;;;;;13.33;10.63;;;18.80;99.90;;;;;;5009543;28;20207;-50
2023/08/26 06:58:21;;;;;;;11.90;10.00;;;18.80;99.90;;;;;;5015482;28;20319;-48
2023/08/26 07:00:48;;;;;;;11.47;9.77;;;18.80;99.90;;;;;;5019797;28;20195;-51
2023/08/26 07:03:15;;;;;;;11.17;10.00;;;18.80;99.90;;;;;;5004571;28;20980;-46
2023/08/26 07:05:45;;;;;;;10.57;8.90;;;18.80;99.90;;;;;;5014359;28;20223;-52
2023/08/26 07:08:13;;;;;;;9.33;8.40;;;18.80;99.90;;;;;;5023056;28;20215;-46
2023/08/26 07:10:40;;;;;;;13.93;9.10;;;18.90;99.90;;;;;;5018554;28;20258;-54
2023/08/26 07:13:07;;;;;;;10.70;9.47;;;19.00;99.90;;;;;;5016115;28;20304;-46
2023/08/26 07:15:34;;;;;;;10.33;8.73;;;19.00;99.90;;;;;;5017273;28;20207;-49
2023/08/26 07:18:01;;;;;;;13.83;8.60;;;19.00;99.90;;;;;;5006388;28;20999;-44
2023/08/26 07:20:28;;;;;;;8.97;7.70;;;19.00;99.90;;;;;;5015040;28;20200;-48
2023/08/26 07:22:56;;;;;;;8.30;7.53;;;19.10;99.90;;;;;;5013381;28;20603;-53
2023/08/26 07:25:23;;;;;;;7.87;7.07;;;19.10;99.90;;;;;;5027477;28;20220;-46
2023/08/26 07:27:50;;;;;;;11.30;7.53;;;19.10;99.90;;;;;;5009830;28;20658;-50
2023/08/26 07:30:17;;;;;;;8.63;7.13;;;19.10;99.90;;;;;;5022094;28;20207;-45
2023/08/26 07:32:44;;;;;;;8.87;6.67;;;19.10;99.90;;;;;;5019712;28;20843;-51
2023/08/26 07:35:11;;;;;;;7.83;5.90;;;19.10;99.90;;;;;;5006301;28;20258;-50
2023/08/26 07:37:38;;;;;;;6.67;5.97;;;19.10;99.90;;;;;;5017170;28;20258;-49
2023/08/26 07:40:14;;;;;;;6.07;5.57;;;19.10;99.90;;;;;;5024016;28;20195;-49
2023/08/26 07:42:42;;;;;;;7.10;5.67;;;19.20;99.90;;;;;;5021222;28;20203;-52
2023/08/26 07:45:09;;;;;;;7.30;6.57;;;19.30;99.90;;;;;;5007616;28;20224;-45
2023/08/26 07:47:36;;;;;;;6.20;5.63;;;19.30;99.90;;;;;;5025437;28;20192;-47
2023/08/26 07:50:03;;;;;;;6.70;4.90;;;19.30;99.90;;;;;;4996977;28;20387;-44
2023/08/26 07:52:30;;;;;;;6.23;5.37;;;19.30;99.90;;;;;;5028769;28;20192;-46
2023/08/26 07:54:57;;;;;;;8.63;5.53;;;19.20;99.90;;;;;;5017210;28;20304;-46
2023/08/26 07:57:25;;;;;;;6.40;5.37;;;19.30;99.90;;;;;;5019968;28;20212;-48
2023/08/26 07:59:52;;;;;;;5.67;5.03;;;19.20;99.90;;;;;;5018734;28;20544;-51
2023/08/26 08:02:19;;;;;;;5.90;5.30;;;19.20;99.90;;;;;;5017253;28;20208;-49
2023/08/26 08:04:46;;;;;;;6.10;5.50;;;19.20;99.90;;;;;;5008705;28;20301;-53
2023/08/26 08:07:13;;;;;;;6.27;4.60;;;19.20;99.90;;;;;;5017625;28;20212;-49
2023/08/26 08:09:40;;;;;;;4.73;4.33;;;19.20;99.90;;;;;;5019473;28;20203;-47
2023/08/26 08:12:09;;;;;;;4.53;4.13;;;19.20;99.90;;;;;;5017926;28;20287;-47
2023/08/26 08:14:37;;;;;;;5.87;3.83;;;19.30;99.90;;;;;;5017115;28;20216;-50
2023/08/26 08:17:04;;;;;;;4.07;3.20;;;19.40;99.90;;;;;;5017892;28;20954;-50
2023/08/26 08:19:31;;;;;;;3.33;2.43;;;19.50;99.90;;;;;;5003572;28;20299;-51
2023/08/26 08:21:58;;;;;;;3.10;2.77;;;19.70;99.90;;;;;;5016757;28;20226;-50
2023/08/26 08:24:24;;;;;;;3.53;2.53;;;19.80;99.90;;;;;;5017816;28;20368;-51
2023/08/26 08:26:51;;;;;;;5.37;2.83;;;19.90;99.90;;;;;;5010655;28;20297;-54
2023/08/26 08:29:18;;;;;;;2.83;2.57;;;19.80;99.90;;;;;;5016173;28;20216;-46
2023/08/26 08:31:47;;;;;;;5.00;2.77;;;19.90;99.90;;;;;;5027956;28;20198;-50
2023/08/26 08:34:13;;;;;;;5.00;2.73;;;19.90;99.90;;;;;;5018615;28;20219;-50
2023/08/26 08:36:40;;;;;;;3.80;2.97;;;19.90;99.90;;;;;;5001589;28;20208;-53
2023/08/26 08:39:07;;;;;;;6.73;3.30;;;19.80;99.90;;;;;;5016931;28;20262;-52
2023/08/26 08:41:36;;;;;;;4.33;2.80;;;19.70;99.90;;;;;;5021270;28;20759;-47
2023/08/26 08:44:09;;;;;;;4.93;3.20;;;19.70;99.90;;;;;;5019694;28;20649;-47
2023/08/26 08:46:36;;;;;;;4.70;2.83;;;19.60;99.90;;;;;;5026656;28;20218;-48
2023/08/26 08:49:05;;;;;;;3.60;2.77;;;19.70;99.90;;;;;;5015005;28;20218;-49
2023/08/26 08:51:32;;;;;;;2.90;2.50;;;19.70;99.90;;;;;;5011350;28;20225;-49
2023/08/26 08:54:02;;;;;;;5.80;3.10;;;19.50;99.90;;;;;;5019176;28;20251;-53
2023/08/26 08:56:31;;;;;;;3.03;2.50;;;19.50;99.90;;;;;;5012824;28;20204;-46
2023/08/26 08:59:00;;;;;;;5.23;2.77;;;19.50;99.90;;;;;;5028439;28;20238;-50
2023/08/26 09:01:28;;;;;;;4.60;2.33;;;19.50;99.90;;;;;;5017955;28;20661;-52
2023/08/26 09:03:54;;;;;;;3.53;2.40;;;19.50;99.90;;;;;;5017475;28;20278;-48
2023/08/26 09:06:22;;;;;;;4.43;2.60;;;19.40;99.90;;;;;;5006230;28;20224;-56
2023/08/26 09:08:50;;;;;;;2.90;2.53;;;19.50;99.90;;;;;;5017322;28;20277;-50
2023/08/26 09:11:17;;;;;;;3.33;2.90;;;19.50;99.90;;;;;;5010460;28;22620;-51
2023/08/26 09:13:45;;;;;;;4.40;2.60;;;19.50;99.90;;;;;;5025390;28;20220;-46
2023/08/26 09:16:12;;;;;;;4.03;2.27;;;19.60;99.90;;;;;;5017689;28;20200;-49
2023/08/26 09:18:40;;;;;;;3.17;2.57;;;19.60;99.90;;;;;;5016764;28;20543;-49
2023/08/26 09:21:10;;;;;;;4.17;2.70;;;19.60;99.90;;;;;;5006565;28;20804;-54
2023/08/26 09:23:45;;;;;;;3.97;2.40;;;19.70;99.90;;;;;;5024381;28;20208;-51
2023/08/26 09:26:12;;;;;;;6.37;3.27;;;19.70;99.90;;;;;;5007434;28;20231;-45
2023/08/26 09:28:46;;;;;;;4.27;3.07;;;19.70;99.90;;;;;;5017174;28;20207;-52
2023/08/26 09:31:14;;;;;;;4.50;2.93;;;19.60;99.90;;;;;;5013812;28;21422;-51
2023/08/26 09:33:42;;;;;;;2.97;2.60;;;19.50;99.90;;;;;;5006802;28;20242;-44
2023/08/26 09:36:09;;;;;;;3.53;2.23;;;19.60;99.90;;;;;;5005120;28;20199;-46
2023/08/26 09:38:44;;;;;;;4.47;1.60;;;19.60;99.90;;;;;;5023088;28;20261;-45
2023/08/26 09:41:12;;;;;;;3.47;1.80;;;19.60;99.90;;;;;;5016672;28;20200;-43
2023/08/26 09:43:42;;;;;;;3.87;1.70;;;19.60;99.90;;;;;;5014659;28;20998;-51
2023/08/26 09:46:09;;;;;;;2.07;1.97;;;19.60;99.90;;;;;;5025445;28;20212;-47
2023/08/26 09:48:35;;;;;;;2.33;1.60;;;19.60;99.90;;;;;;5008586;28;20212;-50
2023/08/26 09:51:08;;;;;;;2.43;1.70;;;19.70;99.90;;;;;;5013799;28;20195;-43
2023/08/26 09:53:35;;;;;;;1.80;1.20;;;19.70;99.90;;;;;;5027967;28;20946;-46
2023/08/26 09:56:03;;;;;;;2.20;1.17;;;19.80;99.90;;;;;;5021099;28;20199;-46
2023/08/26 09:58:31;;;;;;;1.90;0.90;;;19.80;99.90;;;;;;5015102;28;20637;-56
2023/08/26 10:00:58;;;;;;;0.93;0.93;;;19.90;99.90;;;;;;5027637;28;20206;-45
2023/08/26 10:03:26;;;;;;;0.93;0.90;;;19.90;99.90;;;;;;5016700;28;20223;-55
2023/08/26 10:05:59;;;;;;;2.17;1.10;;;19.90;99.90;;;;;;5016340;28;20223;-44
2023/08/26 10:08:31;;;;;;;3.50;1.20;;;19.90;99.90;;;;;;5007167;28;20203;-56
2023/08/26 10:11:03;;;;;;;1.37;0.90;;;19.90;99.90;;;;;;5027588;28;20659;-44
2023/08/26 10:13:36;;;;;;;2.70;1.20;;;19.50;99.90;;;;;;5013106;28;20220;-58
2023/08/26 10:16:06;;;;;;;1.00;1.00;;;20.00;99.90;;;;;;5028619;28;20554;-47
2023/08/26 10:18:41;;;;;;;2.92;1.25;;;20.00;99.90;;;;;;5017223;28;20206;-56
2023/08/26 10:21:08;;;;;;;3.27;1.63;;;19.90;99.90;;;;;;5018892;28;20815;-45
2023/08/26 10:23:35;;;;;;;2.10;1.43;;;19.90;99.90;;;;;;5006913;28;20219;-48
2023/08/26 10:26:03;;;;;;;4.40;1.55;;;19.90;99.90;;;;;;5027610;28;20270;-53
2023/08/26 10:28:34;;;;;;;1.33;1.20;;;20.00;99.90;;;;;;5013608;28;20325;-56
2023/08/26 10:31:01;;;;;;;2.00;1.60;;;19.90;99.90;;;;;;5018696;28;20196;-45
2023/08/26 10:33:28;;;;;;;4.63;1.50;;;20.00;99.90;;;;;;5018666;28;20274;-47
2023/08/26 10:35:59;;;;;;;3.87;1.30;;;20.10;99.90;;;;;;5014605;28;20191;-52
2023/08/26 10:38:26;;;;;;;2.33;1.00;;;20.00;99.90;;;;;;5012347;28;20759;-48
2023/08/26 10:41:09;;;;;;;1.20;1.10;;;20.10;99.90;;;;;;5022587;28;20281;-52
2023/08/26 10:43:37;;;;;;;1.80;0.90;;;20.00;99.90;;;;;;5005596;28;21402;-53
2023/08/26 10:46:04;;;;;;;1.27;1.00;;;20.00;99.90;;;;;;5016005;28;20208;-50
2023/08/26 10:48:51;;;;;;;1.48;0.93;;;20.00;99.90;;;;;;5014290;28;20863;-51
2023/08/26 10:51:17;;;;;;;1.25;0.77;;;20.00;99.90;;;;;;5011174;28;20210;-47
2023/08/26 10:53:44;;;;;;;1.17;0.80;;;20.00;99.90;;;;;;5004324;28;20628;-46
2023/08/26 10:56:17;;;;;;;2.53;0.77;;;19.90;99.90;;;;;;5025573;28;20188;-55
2023/08/26 10:58:46;;;;;;;0.98;0.85;;;19.90;99.90;;;;;;5024012;28;20294;-46
2023/08/26 11:01:14;;;;;;;2.58;1.00;;;20.00;99.90;;;;;;5021144;28;20210;-52
2023/08/26 11:03:40;;;;;;;1.15;1.00;;;20.00;99.90;;;;;;5034950;28;20615;-50
2023/08/26 11:06:09;;;;;;;1.60;1.05;;;20.00;99.90;;;;;;5019139;28;20235;-55
2023/08/26 11:08:38;;;;;;;3.95;1.20;;;20.10;99.90;;;;;;5004646;28;20377;-53
2023/08/26 11:11:05;;;;;;;2.78;1.00;;;20.30;99.90;;;;;;5022416;28;20183;-54
2023/08/26 11:13:32;;;;;;;1.50;1.17;;;20.60;99.90;;;;;;5023563;28;20220;-55
2023/08/26 11:16:00;;;;;;;2.08;1.20;;;20.70;99.90;;;;;;5018459;28;20246;-49
2023/08/26 11:18:27;;;;;;;2.22;1.05;;;20.60;99.90;;;;;;5019389;28;20196;-49
2023/08/26 11:20:54;;;;;;;0.98;0.93;;;20.60;99.90;;;;;;5020974;28;20621;-46
2023/08/26 11:23:25;;;;;;;1.25;1.15;;;20.60;99.90;;;;;;5019992;28;20616;-54
2023/08/26 11:25:52;;;;;;;2.28;1.20;;;20.70;99.90;;;;;;5015733;28;20662;-44
2023/08/26 11:28:18;;;;;;;0.85;0.73;;;20.80;99.90;;;;;;5025609;28;20211;-56
2023/08/26 11:30:46;;;;;;;2.05;1.02;;;20.90;99.90;;;;;;5029302;28;20265;-46
2023/08/26 11:33:16;;;;;;;1.42;0.90;;;20.90;99.90;;;;;;5016422;28;20291;-52
2023/08/26 11:35:43;;;;;;;2.85;1.27;;;21.00;99.90;;;;;;5031014;28;20199;-51
2023/08/26 11:38:11;;;;;;;2.92;1.00;;;21.10;99.90;;;;;;5014786;28;20269;-52
2023/08/26 11:40:38;;;;;;;2.10;1.33;;;21.20;99.90;;;;;;5014903;28;20223;-54
2023/08/26 11:43:08;;;;;;;1.65;1.10;;;21.20;99.90;;;;;;5026550;28;20954;-54
2023/08/26 11:45:36;;;;;;;0.90;0.90;;;21.40;99.90;;;;;;5022263;28;20208;-51
2023/08/26 11:48:03;;;;;;;1.65;1.10;;;21.40;99.90;;;;;;5018835;28;20219;-54
2023/08/26 11:50:34;;;;;;;1.83;1.40;;;21.30;99.90;;;;;;5026757;28;20200;-48
2023/08/26 11:53:02;;;;;;;1.33;0.98;;;21.30;99.90;;;;;;5009949;28;20323;-54
2023/08/26 11:55:30;;;;;;;1.20;1.10;;;21.20;99.90;;;;;;5021472;28;20218;-56
2023/08/26 11:57:58;;;;;;;1.60;0.82;;;21.20;99.90;;;;;;5011681;28;20206;-49
2023/08/26 12:00:25;;;;;;;1.67;1.00;;;21.20;99.90;;;;;;5020279;28;20467;-53
2023/08/26 12:02:53;;;;;;;2.75;1.13;;;21.20;99.90;;;;;;5024814;28;20204;-45
2023/08/26 12:05:20;;;;;;;2.25;1.10;;;21.20;99.90;;;;;;5024856;28;21034;-54
2023/08/26 12:07:50;;;;;;;2.35;1.10;;;21.20;99.90;;;;;;5027446;28;20215;-49
2023/08/26 12:10:18;;;;;;;3.05;1.00;;;21.20;99.90;;;;;;5021066;28;20204;-53
2023/08/26 12:12:46;;;;;;;1.08;1.02;;;21.20;99.90;;;;;;5014445;28;20223;-46
2023/08/26 12:15:15;;;;;;;3.42;1.23;;;21.20;99.90;;;;;;5018805;28;20232;-54
2023/08/26 12:17:44;;;;;;;1.00;0.90;;;21.10;99.90;;;;;;5028135;28;20203;-51
2023/08/26 12:20:21;;;;;;;2.58;0.95;;;21.00;99.90;;;;;;5024300;28;20199;-51
2023/08/26 12:22:50;;;;;;;3.30;0.95;;;21.10;99.90;;;;;;5030552;28;20188;-45
2023/08/26 12:25:18;;;;;;;2.47;0.70;;;21.20;99.90;;;;;;5023066;28;20299;-54
2023/08/26 12:27:45;;;;;;;0.60;0.60;;;21.30;99.90;;;;;;5020575;28;20219;-43
2023/08/26 12:30:12;;;;;;;2.97;0.82;;;21.40;99.90;;;;;;5021670;28;20317;-55
2023/08/26 12:32:39;;;;;;;2.50;0.90;;;21.40;99.90;;;;;;5028044;28;20229;-51
2023/08/26 12:35:07;;;;;;;2.25;0.95;;;21.40;99.90;;;;;;5029167;28;20241;-46
2023/08/26 12:37:34;;;;;;;2.55;0.85;;;21.40;99.90;;;;;;5023427;28;20199;-52
2023/08/26 12:40:04;;;;;;;2.30;0.85;;;21.40;99.90;;;;;;5022008;28;20204;-56